Tiempo atmosférico en la estación meteorológica de Los Arcos, Navarra (470 m.)



Fecha
DESCASC
Temp. máxima en grados centígrados (hora)
DESCASC
Temp. mínima en grados centígrados (hora)
DESCASC
Temp. media en grados centígrados
DESCASC
Racha de viento máxima en m/sg (hora)
DESCASC
Velocidad máxima media en intervalos de 10 minutos(hora)
DESCASC
Precipitaciones diarias en mm
DESCASC
Precipitaciones de 00:00 a 06:00 en mm
DESCASC
Precipitaciones de 06:00 a 12:00 en mm
DESCASC
Precipitaciones de 12:00 a 18:00 en mm
DESCASC
Precipitaciones de 18:00 a 24:00 en mm
DESCASC
05-12-2019 14.3 (14:40) 4.1 (23:50) 9.2 8.06 (00:10) 4.72 (00:10) 0 0 0 0 0
04-12-2019 11.5 (16:40) -0.3 (08:00) 5.6 12.78 (19:40) 6.11 (19:40) 0 0 0 0 0
03-12-2019 9 (15:40) 0.7 (23:30) 4.8 6.67 (00:40) 3.61 (00:40) 0 0 0 0 0
02-12-2019 11.8 (11:40) 4.6 (00:00) 8.2 9.72 (16:40) 4.44 (16:10) 0 0 0 0 0
01-12-2019 9.8 (15:00) 3.8 (00:00) 6.8 3.89 (23:59) 3.33 (00:30) 0 0 0 0 0
30-11-2019 13 (15:00) 5.6 (00:00) 9.3 8.89 (16:30) 5 (16:30) 10.8 0 0.2 8.6 2
29-11-2019 17.6 (15:10) 7 (00:00) 12.3 9.44 (02:20) 4.17 (02:20) 0 0 0 0 0
28-11-2019 14.6 (13:00) 8.2 (00:00) 11.4 13.61 (05:10) 6.39 (05:10) 1.2 0 0 0.4 0.8
27-11-2019 14.5 (13:20) 8.2 (00:00) 11.3 16.11 (03:40) 8.06 (03:30) 5.6 0.2 0 3.4 2
26-11-2019 14.3 (19:10) 6.3 (00:00) 10.3 10.83 (18:30) 6.67 (18:20) 3.8 0 0 0 3.8
25-11-2019 16.6 (15:20) 4 (00:00) 10.3 7.22 (16:10) 3.33 (16:20) 0.6 0.6 0 0 0
24-11-2019 13.4 (16:20) 6 (00:00) 9.7 10 (07:00) 6.11 (07:00) 2 0 0 0 2
23-11-2019 10.6 (14:10) 5.4 (00:00) 8 15.28 (06:40) 7.78 (06:50) 2.6 0.6 1.4 0.6 0
22-11-2019 8.4 (19:30) 4.3 (00:00) 6.3 14.17 (15:40) 9.17 (16:50) 1.6 0 0.2 0.6 0.8
21-11-2019 10.5 (16:30) 3.4 (00:00) 7 6.39 (10:10) 3.61 (10:00) 0 0 0 0 0
20-11-2019 9 (15:30) 1.3 (00:00) 5.1 6.67 (15:10) 4.17 (15:30) 0.8 0 0 0 0.8
19-11-2019 12.4 (16:00) 1.3 (00:00) 6.8 7.5 (13:10) 3.61 (12:50) 0 0 0 0 0
18-11-2019 9.8 (13:30) 3.4 (00:00) 6.6 8.89 (03:20) 4.72 (03:50) 0.2 0 0.2 0 0
17-11-2019 9.6 (12:30) 3.3 (00:00) 6.5 9.17 (14:30) 5.56 (14:30) 0.6 0 0.4 0 0.2
16-11-2019 8.4 (15:30) 0.5 (00:00) 4.4 9.44 (12:10) 5.28 (21:20) 0 0 0 0 0
15-11-2019 6.5 (14:30) 1.9 (00:00) 4.2 12.22 (09:50) 7.22 (09:50) 3.2 0.2 1.2 1.6 0.2
14-11-2019 10.4 (12:40) 2.5 (00:00) 6.4 10.83 (14:10) 6.11 (14:00) 5.8 4.8 1 0 0
13-11-2019 13.7 (12:30) 6.7 (00:00) 10.2 11.39 (12:20) 6.67 (12:20) 7 5.8 1.2 0 0
12-11-2019 12.9 (14:30) 5.2 (00:00) 9 8.61 (19:20) 4.44 (06:20) 1 0 0 0 1
11-11-2019 9.3 (15:20) 3.3 (00:10) 6.3 10.83 (14:50) 6.11 (15:00) 2 0 1 0.6 0.4
10-11-2019 6.1 (00:10) 2.8 (00:00) 4.4 10.83 (12:40) 5.56 (12:40) 15.8 5.4 5.8 4.4 0.2
09-11-2019 11.1 (11:30) 5.7 (00:00) 8.4 14.72 (14:00) 7.5 (14:00) 3.4 0.2 0 0.8 2.4
08-11-2019 7.8 (11:40) 4.6 (00:00) 6.2 13.89 (19:50) 7.22 (11:30) 18 0.2 0.8 13.2 3.8

Gráficas

Temp. máximas Temp. mínimas Temp. medias Precipitaciones Rachas de viento máximas Velocidades máximas media en intervalos de 10 minutos

Datos horarios

Fecha y hora oficial Temperatura (ºC) Velocidad del viento (km/h) Dirección del viento Racha (km/h) Dirección de racha Precipitación (mm) Presión (hPa) Tendencia (hPa) Humedad (%)
2019-12-07 23:00:00 5.6 0 Calma 6 Norte 0 -- -- 92
2019-12-07 22:00:00 5.9 4 Norte 9 Noroeste 0 -- -- 92
2019-12-07 21:00:00 6.8 9 Noroeste 14 Norte 0 -- -- 91
2019-12-07 20:00:00 7.2 0 Calma 10 Norte 0 -- -- 89
2019-12-07 19:00:00 8.1 7 Norte 10 Norte 0 -- -- 85
2019-12-07 18:00:00 10.3 2 Este 3 Este 0 -- -- 76
2019-12-07 17:00:00 14.3 2 Sudoeste 10 Sudoeste 0 -- -- 65
2019-12-07 16:00:00 15.3 4 Sur 12 Sur 0 -- -- 62
2019-12-07 15:00:00 15.8 5 Sur 10 Sur 0 -- -- 61
2019-12-07 14:00:00 14.3 3 Sur 8 Sur 0 -- -- 64
2019-12-07 13:00:00 12.1 4 Sudoeste 8 Sudoeste 0 -- -- 71
2019-12-07 12:00:00 10.3 4 Sudoeste 8 Sudoeste 0 -- -- 76
2019-12-07 11:00:00 8.4 4 Sudeste 6 Sur 0 -- -- 84
2019-12-07 10:00:00 4.9 4 Noroeste 9 Noroeste 0 -- -- 97
2019-12-07 09:00:00 2.9 0 Calma 9 Noroeste 0 -- -- 99
2019-12-07 08:00:00 2.2 7 Noroeste 10 Noroeste 0 -- -- 97
2019-12-07 07:00:00 2.4 2 Nordeste 9 Norte 0 -- -- 97
2019-12-07 06:00:00 2.4 0 Calma 10 Norte 0 -- -- 97
2019-12-07 05:00:00 2.5 2 Sudeste 10 Norte 0 -- -- 95
2019-12-07 04:00:00 3.4 6 Norte 10 Norte 0 -- -- 96
2019-12-07 03:00:00 3.9 2 Sudeste 10 Norte 0 -- -- 95
2019-12-07 02:00:00 3.8 0 Calma 10 Noroeste 0 -- -- 95
2019-12-07 01:00:00 4.2 0 Calma 14 Noroeste 0 -- -- 94
2019-12-07 00:00:00 4.1 2 Norte 13 Noroeste 0 -- -- 96
2019-12-06 23:00:00 4.2 8 Noroeste 12 Noroeste 0 -- -- 96
2019-12-06 22:00:00 4.2 0 Calma 6 Noroeste 0 -- -- 92
2019-12-06 21:00:00 4.9 0 Calma 10 Norte 0 -- -- 91
2019-12-06 20:00:00 5.4 8 Norte 9 Norte 0 -- -- 90
2019-12-06 19:00:00 6.6 3 Norte 8 Nordeste 0 -- -- 84
2019-12-06 18:00:00 8.4 5 Noroeste 7 Noroeste 0 -- -- 78
2019-12-06 17:00:00 11.5 0 Calma 5 Sudeste 0 -- -- 68
2019-12-06 16:00:00 12.5 3 Sudeste 8 Sudeste 0 -- -- 64
2019-12-06 15:00:00 12.1 4 Sudeste 12 Este 0 -- -- 63
2019-12-06 14:00:00 11.6 9 Sudeste 16 Sudeste 0 -- -- 64
2019-12-06 13:00:00 10.5 6 Este 12 Este 0 -- -- 70
2019-12-06 12:00:00 9 6 Este 10 Este 0 -- -- 75
2019-12-06 11:00:00 7 5 Sudeste 8 Sudoeste 0 -- -- 80
2019-12-06 10:00:00 4.3 0 Calma 4 Este 0 -- -- 90
2019-12-06 09:00:00 1.8 4 Oeste 14 Noroeste 0 -- -- 97
2019-12-06 08:00:00 1.2 2 Noroeste 9 Noroeste 0 -- -- 96
2019-12-06 07:00:00 1.1 3 Noroeste 14 Noroeste 0 -- -- 94
2019-12-06 06:00:00 2.1 3 Nordeste 18 Noroeste 0 -- -- 95
2019-12-06 05:00:00 1.8 9 Norte 13 Noroeste 0 -- -- 95
2019-12-06 04:00:00 2.1 3 Norte 16 Noroeste 0 -- -- 93
2019-12-06 03:00:00 2.9 10 Norte 15 Noroeste 0 -- -- 94
2019-12-06 02:00:00 3.4 11 Norte 15 Norte 0 -- -- 92
2019-12-06 01:00:00 3.7 2 Oeste 12 Noroeste 0 -- -- 92
2019-12-06 00:00:00 4.2 10 Noroeste 12 Noroeste 0 -- -- 91
2019-12-05 23:00:00 4.4 7 Noroeste 11 Noroeste 0 -- -- 88
2019-12-05 22:00:00 5.4 6 Oeste 10 Oeste 0 -- -- 85
2019-12-05 21:00:00 6.1 4 Oeste 9 Oeste 0 -- -- 80
2019-12-05 20:00:00 6.9 3 Oeste 12 Oeste 0 -- -- 76
2019-12-05 19:00:00 7.7 6 Noroeste 17 Noroeste 0 -- -- 70
2019-12-05 18:00:00 9.2 9 Noroeste 20 Norte 0 -- -- 66
2019-12-05 17:00:00 11.7 7 Norte 20 Noroeste 0 -- -- 60
2019-12-05 16:00:00 13.6 10 Norte 22 Norte 0 -- -- 54
2019-12-05 15:00:00 14.2 11 Norte 23 Norte 0 -- -- 52
2019-12-05 14:00:00 14 10 Norte 25 Norte 0 -- -- 54
2019-12-05 13:00:00 13 8 Norte 19 Norte 0 -- -- 57
2019-12-05 12:00:00 10.1 7 Norte 21 Noroeste 0 -- -- 67
2019-12-05 11:00:00 9.1 10 Noroeste 22 Noroeste 0 -- -- 73
2019-12-05 10:00:00 7.8 8 Noroeste 18 Norte 0 -- -- 81
2019-12-05 09:00:00 7.3 10 Noroeste 22 Noroeste 0 -- -- 83
2019-12-05 08:00:00 6.4 8 Noroeste 20 Noroeste 0 -- -- 85
2019-12-05 07:00:00 5.8 7 Noroeste 17 Noroeste 0 -- -- 84
2019-12-05 06:00:00 6.3 9 Noroeste 21 Noroeste 0 -- -- 84
2019-12-05 05:00:00 6.4 9 Noroeste 19 Noroeste 0 -- -- 85
2019-12-05 04:00:00 5.1 6 Oeste 9 Noroeste 0 -- -- 87
2019-12-05 03:00:00 5.6 5 Oeste 15 Noroeste 0 -- -- 81
2019-12-05 02:00:00 6.3 6 Noroeste 21 Noroeste 0 -- -- 80
2019-12-05 01:00:00 6.4 9 Noroeste 29 Norte 0 -- -- 80
2019-12-05 00:00:00 7.2 14 Noroeste 30 Oeste 0 -- -- 83
2019-12-04 23:00:00 7.7 10 Noroeste 29 Noroeste 0 -- -- 82
2019-12-04 22:00:00 8 13 Noroeste 31 Noroeste 0 -- -- 81
2019-12-04 21:00:00 7.8 16 Noroeste 32 Noroeste 0 -- -- 79
2019-12-04 20:00:00 8 19 Noroeste 46 Noroeste 0 -- -- 78
2019-12-04 19:00:00 8.4 10 Noroeste 26 Noroeste 0 -- -- 71
2019-12-04 18:00:00 9.2 12 Noroeste 25 Noroeste 0 -- -- 68
2019-12-04 17:00:00 10.8 13 Noroeste 23 Oeste 0 -- -- 68
2019-12-04 16:00:00 10.7 6 Oeste 14 Noroeste 0 -- -- 74
2019-12-04 15:00:00 10.4 5 Sudoeste 10 Oeste 0 -- -- 72
2019-12-04 14:00:00 9.2 5 Oeste 13 Sudoeste 0 -- -- 74
2019-12-04 13:00:00 9.1 7 Oeste 13 Oeste 0 -- -- 72
2019-12-04 12:00:00 7.9 5 Sudoeste 12 Sudoeste 0 -- -- 77
2019-12-04 11:00:00 5.2 5 Oeste 9 Sudoeste 0 -- -- 82
2019-12-04 10:00:00 3.4 4 Sudoeste 7 Oeste 0 -- -- 89
2019-12-04 09:00:00 0.8 0 Calma 17 Noroeste 0 -- -- 97
2019-12-04 08:00:00 -0.3 0 Calma 14 Noroeste 0 -- -- 95
2019-12-04 07:00:00 0 6 Noroeste 13 Noroeste 0 -- -- 96
2019-12-04 06:00:00 0.4 3 Oeste 10 Noroeste 0 -- -- 95
2019-12-04 05:00:00 0.2 4 Oeste 6 Noroeste 0 -- -- 94
2019-12-04 04:00:00 1.3 0 Calma 4 Este 0 -- -- 94
2019-12-04 03:00:00 1.3 0 Calma 13 Noroeste 0 -- -- 94
2019-12-04 02:00:00 0.7 5 Noroeste 10 Noroeste 0 -- -- 94
2019-12-04 01:00:00 0.8 0 Calma 10 Norte 0 -- -- 93
2019-12-04 00:00:00 0.9 0 Calma 8 Norte 0 -- -- 92
2019-12-03 23:00:00 0.8 4 Nordeste 12 Norte 0 -- -- 92
2019-12-03 22:00:00 1.1 7 Norte 11 Noroeste 0 -- -- 90
2019-12-03 21:00:00 1.5 6 Noroeste 13 Noroeste 0 -- -- 89
2019-12-03 20:00:00 2.2 5 Nordeste 9 Nordeste 0 -- -- 85
2019-12-03 19:00:00 2.9 8 Norte 12 Noroeste 0 -- -- 82
2019-12-03 18:00:00 4.5 5 Norte 7 Nordeste 0 -- -- 75
2019-12-03 17:00:00 7.6 5 Norte 9 Oeste 0 -- -- 64
2019-12-03 16:00:00 8.9 4 Oeste 13 Oeste 0 -- -- 58
2019-12-03 15:00:00 7.6 5 Norte 12 Nordeste 0 -- -- 62
2019-12-03 14:00:00 6.9 6 Norte 17 Norte 0 -- -- 67
2019-12-03 13:00:00 7.2 6 Norte 17 Norte 0 -- -- 65
2019-12-03 12:00:00 8 10 Norte 20 Norte 0 -- -- 64
2019-12-03 11:00:00 6.9 8 Noroeste 20 Noroeste 0 -- -- 67
2019-12-03 10:00:00 5.8 8 Noroeste 14 Noroeste 0 -- -- 73
2019-12-03 09:00:00 1.9 6 Oeste 10 Noroeste 0 -- -- 87
2019-12-03 08:00:00 3.1 6 Noroeste 15 Noroeste 0 -- -- 80
2019-12-03 07:00:00 4.1 7 Noroeste 15 Noroeste 0 -- -- 81
2019-12-03 06:00:00 4.1 8 Norte 22 Noroeste 0 -- -- 82
2019-12-03 05:00:00 4 5 Oeste 13 Noroeste 0 -- -- 82
2019-12-03 04:00:00 4.3 6 Oeste 11 Noroeste 0 -- -- 83
2019-12-03 03:00:00 4.2 5 Oeste 8 Oeste 0 -- -- 83
2019-12-03 02:00:00 4.5 3 Oeste 19 Noroeste 0 -- -- 82
2019-12-03 01:00:00 4.7 6 Noroeste 24 Noroeste 0 -- -- 80
2019-12-03 00:00:00 5.1 12 Noroeste 24 Noroeste 0 -- -- 78
2019-12-02 23:00:00 5.4 12 Noroeste 24 Noroeste 0 -- -- 78
2019-12-02 22:00:00 5.4 11 Noroeste 25 Noroeste 0 -- -- 77
2019-12-02 21:00:00 5.1 11 Noroeste 24 Noroeste 0 -- -- 77
2019-12-02 20:00:00 5.2 13 Noroeste 26 Noroeste 0 -- -- 73
2019-12-02 19:00:00 6 12 Noroeste 22 Noroeste 0 -- -- 72
2019-12-02 18:00:00 7 11 Norte 25 Nordeste 0 -- -- 75
2019-12-02 17:00:00 7.8 13 Norte 35 Norte 0 -- -- 68
2019-12-02 16:00:00 8.6 13 Norte 32 Norte 0 -- -- 70
2019-12-02 15:00:00 9.7 14 Norte 31 Norte 0 -- -- 69
2019-12-02 14:00:00 10.1 9 Noroeste 23 Norte 0 -- -- 68
2019-12-02 13:00:00 11 11 Noroeste 26 Norte 0 -- -- 64
2019-12-02 12:00:00 10.7 10 Noroeste 23 Norte 0 -- -- 65
2019-12-02 11:00:00 11.2 12 Norte 27 Noroeste 0 -- -- 66
2019-12-02 10:00:00 9.9 11 Noroeste 23 Oeste 0 -- -- 70
2019-12-02 09:00:00 8.4 5 Noroeste 14 Norte 0 -- -- 77
2019-12-02 08:00:00 6.7 9 Noroeste 17 Norte 0 -- -- 82
2019-12-02 07:00:00 6.9 8 Norte 26 Norte 0 -- -- 80
2019-12-02 06:00:00 6.7 8 Norte 22 Norte 0 -- -- 81
2019-12-02 05:00:00 6.2 3 Noroeste 10 Norte 0 -- -- 83
2019-12-02 04:00:00 7.2 4 Norte 25 Norte 0 -- -- 79
2019-12-02 03:00:00 6.9 10 Norte 26 Norte 0 -- -- 82
2019-12-02 02:00:00 5.8 9 Norte 19 Norte 0 -- -- 90
2019-12-02 01:00:00 5.2 12 Noroeste 16 Noroeste 0 -- -- 94
2019-12-02 00:00:00 4.8 7 Noroeste 14 Noroeste 0 -- -- 94
2019-12-01 23:00:00 4.7 2 Sudeste 10 Noroeste 0 -- -- 91
2019-12-01 22:00:00 5.2 5 Noroeste 9 Noroeste 0 -- -- 91
2019-12-01 21:00:00 5.2 4 Norte 9 Norte 0 -- -- 95
2019-12-01 20:00:00 6.1 5 Norte 8 Norte 0 -- -- 93
2019-12-01 19:00:00 7.5 3 Oeste 7 Noroeste 0 -- -- 94
2019-12-01 18:00:00 7.8 3 Noroeste 6 Sudoeste 0 -- -- 89
2019-12-01 17:00:00 8.9 3 Oeste 9 Sudoeste 0 -- -- 88
2019-12-01 16:00:00 9.3 3 Sudoeste 8 Sudoeste 0 -- -- 85
2019-12-01 15:00:00 9.8 2 Sudoeste 7 Oeste 0 -- -- 83
2019-12-01 14:00:00 9 4 Noroeste 9 Noroeste 0 -- -- 87
2019-12-01 13:00:00 8 0 Calma 5 Norte 0 -- -- 93
2019-12-01 12:00:00 7.2 0 Calma 6 Sudoeste 0 -- -- 98
2019-12-01 11:00:00 6.9 3 Sur 9 Norte 0 -- -- 98
2019-12-01 10:00:00 6.5 5 Norte 8 Norte 0 -- -- 99
2019-12-01 09:00:00 5.4 7 Norte 9 Norte 0 -- -- 99
2019-12-01 08:00:00 5.1 4 Norte 6 Norte 0 -- -- 98
2019-12-01 07:00:00 4.8 4 Nordeste 9 Norte 0 -- -- 99
2019-12-01 06:00:00 4.1 3 Este 10 Noroeste 0 -- -- 98
2019-12-01 05:00:00 4.3 4 Norte 9 Norte 0 -- -- 97
2019-12-01 04:00:00 4.2 4 Este 13 Noroeste 0 -- -- 98
2019-12-01 03:00:00 4.1 9 Norte 13 Norte 0 -- -- 96
2019-12-01 02:00:00 5 4 Este 11 Norte 0 -- -- 97
2019-12-01 01:00:00 4.9 6 Norte 14 Noroeste 0 -- -- 96
2019-12-01 00:00:00 5.6 5 Nordeste 8 Nordeste 0 -- -- 95
2019-11-30 23:00:00 6.5 3 Este 6 Norte 0 -- -- 94
2019-11-30 22:00:00 7.2 6 Norte 10 Norte 0 -- -- 95
2019-11-30 21:00:00 7.6 3 Sudoeste 12 Noroeste 0 -- -- 94
2019-11-30 20:00:00 8.3 4 Nordeste 9 Norte 0 -- -- 94
2019-11-30 19:00:00 8.9 5 Norte 23 Noroeste 2 -- -- 94
2019-11-30 18:00:00 9.5 6 Oeste 19 Norte 1.4 -- -- 92
2019-11-30 17:00:00 9.8 6 Nordeste 32 Noroeste 6 -- -- 91
2019-11-30 16:00:00 11.8 8 Este 24 Este 1.2 -- -- 91
2019-11-30 15:00:00 13 14 Este 21 Este 0 -- -- 82
2019-11-30 14:00:00 12.1 8 Nordeste 19 Sudeste 0 -- -- 84
2019-11-30 13:00:00 11.2 12 Este 18 Este 0 -- -- 83
2019-11-30 12:00:00 9.8 10 Este 15 Este 0.2 -- -- 85
2019-11-30 11:00:00 9.4 7 Este 12 Este 0 -- -- 80
2019-11-30 10:00:00 8.5 3 Este 9 Este 0 -- -- 83
2019-11-30 09:00:00 8.2 5 Este 15 Este 0 -- -- 82
2019-11-30 08:00:00 8.2 8 Este 13 Este 0 -- -- 82
2019-11-30 07:00:00 8.5 7 Este 12 Este 0 -- -- 84
2019-11-30 06:00:00 7.6 4 Este 9 Este 0 -- -- 89
2019-11-30 05:00:00 7.6 0 Calma 10 Nordeste 0 -- -- 89
2019-11-30 04:00:00 7.5 8 Nordeste 14 Nordeste 0 -- -- 89
2019-11-30 03:00:00 7.3 5 Este 10 Este 0 -- -- 90
2019-11-30 02:00:00 6.6 3 Nordeste 12 Nordeste 0 -- -- 91
2019-11-30 01:00:00 7.2 0 Calma 12 Nordeste 0 -- -- 87
2019-11-30 00:00:00 7 7 Norte 9 Norte 0 -- -- 89
2019-11-29 23:00:00 7.3 8 Norte 10 Norte 0 -- -- 87
2019-11-29 22:00:00 7.8 3 Norte 10 Norte 0 -- -- 85
2019-11-29 21:00:00 7.8 7 Norte 9 Norte 0 -- -- 88
2019-11-29 20:00:00 9.2 4 Norte 9 Nordeste 0 -- -- 83
2019-11-29 19:00:00 10.7 6 Este 11 Este 0 -- -- 80
2019-11-29 18:00:00 12.2 5 Este 9 Este 0 -- -- 79
2019-11-29 17:00:00 14.9 2 Sudeste 6 Sudeste 0 -- -- 72
2019-11-29 16:00:00 16.4 2 Sur 9 Oeste 0 -- -- 63
2019-11-29 15:00:00 17.5 3 Sudoeste 10 Sur 0 -- -- 59
2019-11-29 14:00:00 17.2 4 Sur 12 Sudeste 0 -- -- 61
2019-11-29 13:00:00 16.3 5 Sudeste 12 Sudoeste 0 -- -- 71
2019-11-29 12:00:00 15 4 Sur 9 Nordeste 0 -- -- 75
2019-11-29 11:00:00 13.1 2 Sudoeste 6 Oeste 0 -- -- 79
2019-11-29 10:00:00 12 3 Noroeste 10 Noroeste 0 -- -- 81
2019-11-29 09:00:00 11.3 0 Calma 6 Norte 0 -- -- 85
2019-11-29 08:00:00 11.5 4 Oeste 20 Oeste 0 -- -- 82
2019-11-29 07:00:00 11.9 8 Oeste 20 Noroeste 0 -- -- 82
2019-11-29 06:00:00 11.9 9 Noroeste 16 Noroeste 0 -- -- 86
2019-11-29 05:00:00 12.1 6 Noroeste 14 Noroeste 0 -- -- 89
2019-11-29 04:00:00 11.8 6 Oeste 14 Oeste 0 -- -- 90
2019-11-29 03:00:00 12 6 Oeste 34 Noroeste 0 -- -- 88
2019-11-29 02:00:00 11.9 13 Oeste 23 Oeste 0 -- -- 90
2019-11-29 01:00:00 10.2 0 Calma 12 Este 0 -- -- 95
2019-11-29 00:00:00 10.3 6 Este 10 Este 0 -- -- 96
2019-11-28 23:00:00 9.9 5 Este 9 Norte 0 -- -- 96
2019-11-28 22:00:00 10 6 Norte 12 Nordeste 0.2 -- -- 95
2019-11-28 21:00:00 10.3 0 Calma 18 Oeste 0.2 -- -- 95
2019-11-28 20:00:00 10.6 4 Nordeste 15 Noroeste 0.4 -- -- 93
2019-11-28 19:00:00 10.8 5 Nordeste 8 Norte 0 -- -- 92
2019-11-28 18:00:00 11.4 5 Norte 10 Este 0.2 -- -- 88
2019-11-28 17:00:00 11.9 5 Nordeste 9 Nordeste 0 -- -- 89
2019-11-28 16:00:00 13 4 Norte 7 Norte 0.2 -- -- 86
2019-11-28 15:00:00 13.4 3 Sudoeste 10 Sudeste 0 -- -- 77
2019-11-28 14:00:00 13.3 4 Sur 18 Sudeste 0 -- -- 80
2019-11-28 13:00:00 14.6 4 Sur 13 Sudeste 0 -- -- 73
2019-11-28 12:00:00 12.7 8 Sudeste 16 Sudeste 0 -- -- 80
2019-11-28 11:00:00 11.6 7 Este 14 Este 0 -- -- 83
2019-11-28 10:00:00 10.2 8 Este 15 Este 0 -- -- 87
2019-11-28 09:00:00 9.2 8 Este 13 Este 0 -- -- 88
2019-11-28 08:00:00 9.2 3 Sudeste 12 Este 0 -- -- 87
2019-11-28 07:00:00 9.8 3 Sudeste 34 Oeste 0 -- -- 82
2019-11-28 06:00:00 11.5 12 Oeste 49 Oeste 0 -- -- 75
2019-11-28 05:00:00 11.8 22 Oeste 44 Oeste 0 -- -- 74
2019-11-28 04:00:00 11.5 19 Oeste 46 Oeste 0 -- -- 75
2019-11-28 03:00:00 10 7 Sudoeste 22 Oeste 0 -- -- 83
2019-11-28 02:00:00 11.3 17 Oeste 43 Oeste 0 -- -- 76
2019-11-28 01:00:00 9.5 11 Oeste 28 Noroeste 0 -- -- 89
2019-11-28 00:00:00 8.2 7 Nordeste 15 Nordeste 0 -- -- 95
2019-11-27 23:00:00 8.6 6 Sudeste 11 Sudeste 0 -- -- 95
2019-11-27 22:00:00 8.8 3 Sudeste 6 Sudoeste 0 -- -- 95
2019-11-27 21:00:00 9 4 Sudoeste 10 Sudoeste 0.2 -- -- 95
2019-11-27 20:00:00 9.3 0 Calma 27 Oeste 0.6 -- -- 93
2019-11-27 19:00:00 9.7 12 Oeste 22 Oeste 1.2 -- -- 93
2019-11-27 18:00:00 9.8 2 Oeste 10 Oeste 1.2 -- -- 92
2019-11-27 17:00:00 10.3 7 Oeste 26 Oeste 2 -- -- 88
2019-11-27 16:00:00 12.3 12 Oeste 23 Oeste 0.2 -- -- 73
2019-11-27 15:00:00 13.7 8 Sudoeste 28 Oeste 0 -- -- 65
2019-11-27 14:00:00 14.1 12 Oeste 24 Oeste 0 -- -- 62
2019-11-27 06:00:00 -- -- -- -- -- -- -- -- --
2019-11-27 05:00:00 11.2 22 Oeste 53 Oeste 0 -- -- 66
2019-11-27 04:00:00 11.6 25 Oeste 58 Oeste 0.2 -- -- 67
2019-11-27 03:00:00 11.7 20 Oeste 55 Oeste 0 -- -- 68
2019-11-27 02:00:00 10.8 18 Oeste 37 Noroeste 0 -- -- 78
2019-11-27 01:00:00 10.4 11 Oeste 21 Oeste 0 -- -- 87
2019-11-27 00:00:00 11.5 9 Oeste 23 Oeste 1.8 -- -- 88
2019-11-26 23:00:00 12 11 Noroeste 23 Oeste 1.2 -- -- 90
2019-11-26 22:00:00 12.9 6 Nordeste 24 Este 0 -- -- 84
2019-11-26 21:00:00 12.8 8 Norte 24 Sudeste 0.8 -- -- 87
2019-11-26 20:00:00 14 14 Sudeste 35 Sur 0 -- -- 77
2019-11-26 19:00:00 14.2 18 Sudeste 39 Sudeste 0 -- -- 75
2019-11-26 18:00:00 14 19 Sudeste 33 Sur 0 -- -- 78
2019-11-26 17:00:00 13.7 9 Sudeste 18 Este 0 -- -- 82
2019-11-26 16:00:00 13.2 14 Este 23 Este 0 -- -- 83
2019-11-26 15:00:00 13.5 12 Este 18 Este 0 -- -- 79
2019-11-26 14:00:00 12.2 11 Este 18 Sudeste 0 -- -- 80
2019-11-26 13:00:00 12.1 10 Este 19 Este 0 -- -- 80
2019-11-26 12:00:00 11.1 8 Este 13 Este 0 -- -- 85
2019-11-26 11:00:00 10.6 4 Este 9 Este 0 -- -- 86
2019-11-26 10:00:00 10.4 7 Este 11 Este 0 -- -- 88
2019-11-26 09:00:00 8.2 4 Noroeste 8 Noroeste 0 -- -- 98
2019-11-26 08:00:00 7.7 4 Nordeste 9 Norte 0 -- -- 98
2019-11-26 07:00:00 6.5 4 Norte 15 Norte 0 -- -- 97
2019-11-26 06:00:00 6.6 0 Calma 9 Norte 0 -- -- 97
2019-11-26 05:00:00 7 5 Nordeste 9 Este 0 -- -- 96
2019-11-26 04:00:00 7 2 Sudeste 10 Este 0 -- -- 95
2019-11-26 03:00:00 7.1 3 Norte 9 Noroeste 0 -- -- 95
2019-11-26 02:00:00 7.4 4 Este 8 Este 0 -- -- 94
2019-11-26 01:00:00 7.6 2 Norte 10 Este 0 -- -- 92
2019-11-26 00:00:00 8.1 3 Nordeste 13 Este 0 -- -- 89
2019-11-25 23:00:00 8.9 8 Este 14 Este 0 -- -- 89
2019-11-25 22:00:00 9.4 4 Este 10 Este 0 -- -- 88
2019-11-25 21:00:00 9.3 2 Norte 9 Nordeste 0 -- -- 85
2019-11-25 20:00:00 9.8 2 Nordeste 10 Norte 0 -- -- 83
2019-11-25 19:00:00 11.2 3 Nordeste 9 Este 0 -- -- 75
2019-11-25 18:00:00 12.7 5 Noroeste 16 Noroeste 0 -- -- 69
2019-11-25 17:00:00 14.7 9 Noroeste 26 Oeste 0 -- -- 63
2019-11-25 16:00:00 16.1 4 Este 14 Este 0 -- -- 67
2019-11-25 15:00:00 16.4 4 Sudeste 8 Sudeste 0 -- -- 67
2019-11-25 14:00:00 14.8 4 Sudeste 9 Sudeste 0 -- -- 71
2019-11-25 13:00:00 13 4 Sudeste 12 Sudeste 0 -- -- 74
2019-11-25 12:00:00 11.7 4 Sudeste 8 Sudeste 0 -- -- 77
2019-11-25 11:00:00 9.8 3 Sudeste 9 Sudeste 0 -- -- 84
2019-11-25 10:00:00 8.3 2 Sudoeste 12 Este 0 -- -- 93
2019-11-25 09:00:00 5 5 Noroeste 8 Norte 0 -- -- 98
2019-11-25 08:00:00 4.1 4 Sudeste 10 Noroeste 0 -- -- 96
2019-11-25 07:00:00 4.7 6 Norte 12 Noroeste 0 -- -- 96
2019-11-25 06:00:00 5.2 3 Noroeste 8 Norte 0 -- -- 95
2019-11-25 05:00:00 5.8 6 Norte 9 Norte 0 -- -- 97
2019-11-25 04:00:00 5.7 5 Norte 8 Noroeste 0 -- -- 95
2019-11-25 03:00:00 6.3 6 Noroeste 10 Noroeste 0 -- -- 96
2019-11-25 02:00:00 6.4 4 Norte 10 Nordeste 0 -- -- 96
2019-11-25 01:00:00 6.3 7 Nordeste 12 Este 0.6 -- -- 95
2019-11-25 00:00:00 6.3 8 Este 14 Este 0 -- -- 94
2019-11-24 23:00:00 7 6 Este 9 Este 1.8 -- -- 91
2019-11-24 22:00:00 7.9 0 Calma 7 Norte 0.2 -- -- 85
2019-11-24 21:00:00 8.1 5 Nordeste 8 Norte 0 -- -- 74
2019-11-24 20:00:00 8.1 9 Noroeste 16 Noroeste 0 -- -- 72
2019-11-24 19:00:00 8.4 2 Noroeste 16 Oeste 0 -- -- 69
2019-11-24 18:00:00 9.9 5 Oeste 14 Noroeste 0 -- -- 63
2019-11-24 17:00:00 11.1 7 Noroeste 21 Oeste 0 -- -- 63
2019-11-24 16:00:00 13.1 10 Noroeste 23 Oeste 0 -- -- 57
2019-11-24 15:00:00 12.6 5 Sudeste 10 Sudeste 0 -- -- 63
2019-11-24 14:00:00 10.5 2 Sudoeste 10 Sudoeste 0 -- -- 70
2019-11-24 13:00:00 9.4 4 Sudoeste 15 Oeste 0 -- -- 74
2019-11-24 12:00:00 8.5 5 Oeste 20 Oeste 0 -- -- 77
2019-11-24 11:00:00 7.8 9 Oeste 21 Oeste 0 -- -- 77
2019-11-24 10:00:00 7.2 11 Oeste 21 Oeste 0 -- -- 79
2019-11-24 09:00:00 6.1 4 Oeste 20 Oeste 0 -- -- 81
2019-11-24 08:00:00 6.5 14 Oeste 32 Noroeste 0 -- -- 78
2019-11-24 07:00:00 6.9 22 Noroeste 36 Noroeste 0 -- -- 78
2019-11-24 06:00:00 6.8 11 Oeste 26 Noroeste 0 -- -- 78
2019-11-24 05:00:00 7 12 Oeste 26 Oeste 0 -- -- 79
2019-11-24 04:00:00 7.1 15 Noroeste 27 Noroeste 0 -- -- 81
2019-11-24 03:00:00 6.9 7 Oeste 22 Oeste 0 -- -- 80
2019-11-24 02:00:00 7.2 14 Oeste 27 Oeste 0 -- -- 78
2019-11-24 01:00:00 8 13 Oeste 28 Noroeste 0 -- -- 76
2019-11-24 00:00:00 8 10 Oeste 31 Oeste 0 -- -- 76
2019-11-23 23:00:00 8.1 11 Oeste 31 Noroeste 0 -- -- 74
2019-11-23 22:00:00 7.8 13 Oeste 28 Oeste 0 -- -- 75
2019-11-23 21:00:00 8.1 15 Oeste 27 Oeste 0 -- -- 75
2019-11-23 20:00:00 8 15 Oeste 28 Oeste 0 -- -- 76
2019-11-23 19:00:00 7.9 12 Oeste 30 Oeste 0 -- -- 78
2019-11-23 18:00:00 7.8 14 Oeste 32 Noroeste 0 -- -- 83
2019-11-23 17:00:00 9.2 11 Oeste 36 Noroeste 0 -- -- 75
2019-11-23 16:00:00 10.2 15 Oeste 42 Oeste 0.2 -- -- 73
2019-11-23 15:00:00 9.9 18 Oeste 44 Oeste 0.4 -- -- 72
2019-11-23 14:00:00 10.3 20 Oeste 45 Oeste 0 -- -- 72
2019-11-23 13:00:00 8.2 22 Oeste 46 Oeste 0 -- -- 77
2019-11-23 12:00:00 8.2 22 Oeste 50 Oeste 0 -- -- 80
2019-11-23 11:00:00 8.1 23 Oeste 48 Oeste 0 -- -- 80
2019-11-23 10:00:00 6.7 17 Oeste 42 Oeste 0.4 -- -- 88
2019-11-23 09:00:00 6.7 24 Oeste 42 Oeste 0.6 -- -- 86
2019-11-23 08:00:00 6.9 20 Oeste 49 Oeste 0.4 -- -- 86
2019-11-23 07:00:00 7.5 26 Oeste 55 Oeste 0 -- -- 82
2019-11-23 06:00:00 7.8 23 Oeste 48 Oeste 0.4 -- -- 80
2019-11-23 05:00:00 8 22 Oeste 45 Oeste 0.2 -- -- 82
2019-11-23 04:00:00 6.6 7 Oeste 18 Sudoeste 0 -- -- 98
2019-11-23 03:00:00 5.8 3 Oeste 12 Norte 0 -- -- 98
2019-11-23 02:00:00 5.5 6 Este 13 Norte 0 -- -- 97
2019-11-23 01:00:00 6.4 3 Este 8 Norte 0 -- -- 97
2019-11-23 00:00:00 7.6 3 Norte 9 Nordeste 0 -- -- 97
2019-11-22 23:00:00 8 6 Nordeste 9 Este 0 -- -- 97
2019-11-22 22:00:00 8.4 5 Este 9 Este 0 -- -- 97
2019-11-22 21:00:00 8.4 3 Norte 22 Sudeste 0.2 -- -- 97
2019-11-22 20:00:00 8.4 13 Sudeste 35 Sudeste 0 -- -- 96
2019-11-22 19:00:00 8.3 15 Sur 50 Sudeste 0.6 -- -- 96
2019-11-22 18:00:00 8 25 Sudeste 51 Sudeste 0.2 -- -- 95
2019-11-22 17:00:00 7.8 33 Sudeste 51 Sudeste 0 -- -- 96
2019-11-22 16:00:00 7.4 31 Sudeste 51 Este 0.2 -- -- 95
2019-11-22 15:00:00 7.5 27 Sudeste 50 Sudeste 0.2 -- -- 92
2019-11-22 14:00:00 7.5 27 Sudeste 50 Este 0 -- -- 90
2019-11-22 13:00:00 7.3 27 Sudeste 49 Sudeste 0 -- -- 90
2019-11-22 12:00:00 6.9 27 Sudeste 44 Sudeste 0.2 -- -- 92
2019-11-22 11:00:00 6.4 29 Sudeste 47 Sudeste 0 -- -- 92
2019-11-22 10:00:00 6.2 30 Sudeste 45 Sudeste 0 -- -- 93
2019-11-22 09:00:00 5.8 23 Sudeste 35 Este 0 -- -- 91
2019-11-22 08:00:00 5.4 18 Este 29 Este 0 -- -- 92
2019-11-22 07:00:00 5.5 16 Sudeste 27 Sudeste 0 -- -- 92
2019-11-22 06:00:00 5.1 12 Este 27 Este 0 -- -- 93
2019-11-22 05:00:00 5.4 18 Este 33 Este 0 -- -- 92
2019-11-22 04:00:00 5.2 14 Este 24 Este 0 -- -- 93
2019-11-22 03:00:00 5.1 13 Este 23 Este 0 -- -- 94
2019-11-22 02:00:00 4.4 7 Este 14 Nordeste 0 -- -- 96
2019-11-22 01:00:00 4.6 7 Nordeste 12 Este 0 -- -- 97
2019-11-22 00:00:00 4.5 4 Este 13 Nordeste 0 -- -- 97
2019-11-21 23:00:00 3.8 6 Nordeste 9 Nordeste 0 -- -- 97
2019-11-21 22:00:00 3.6 2 Este 9 Norte 0 -- -- 96
2019-11-21 21:00:00 3.9 4 Nordeste 8 Norte 0 -- -- 95
2019-11-21 20:00:00 4.4 4 Norte 9 Norte 0 -- -- 95
2019-11-21 19:00:00 4.9 3 Norte 12 Norte 0 -- -- 93
2019-11-21 18:00:00 6.6 3 Oeste 7 Oeste 0 -- -- 85
2019-11-21 17:00:00 10.3 4 Sudoeste 8 Sudoeste 0 -- -- 75
2019-11-21 16:00:00 10 4 Sudoeste 14 Sudoeste 0 -- -- 78
2019-11-21 15:00:00 10.2 6 Sudeste 12 Sudeste 0 -- -- 78
2019-11-21 14:00:00 8.3 5 Sudeste 12 Sudeste 0 -- -- 83
2019-11-21 13:00:00 6.7 7 Sudeste 15 Sudeste 0 -- -- 89
2019-11-21 12:00:00 5.7 8 Este 17 Sudeste 0 -- -- 94
2019-11-21 11:00:00 4.8 12 Sudeste 23 Este 0 -- -- 96
2019-11-21 10:00:00 5.1 13 Este 19 Este 0 -- -- 94
2019-11-21 09:00:00 4.8 9 Este 12 Este 0 -- -- 95
2019-11-21 08:00:00 4.9 5 Este 12 Este 0 -- -- 95
2019-11-21 07:00:00 5 6 Este 11 Este 0 -- -- 95
2019-11-21 06:00:00 5.2 8 Este 16 Este 0 -- -- 94
2019-11-21 05:00:00 5.3 7 Este 13 Este 0 -- -- 94
2019-11-21 04:00:00 5.4 8 Este 14 Este 0 -- -- 94
2019-11-21 03:00:00 5.3 9 Este 17 Este 0 -- -- 94
2019-11-21 02:00:00 5 8 Nordeste 20 Este 0 -- -- 95
2019-11-21 01:00:00 5.2 11 Este 19 Este 0 -- -- 94
2019-11-21 00:00:00 5.4 11 Este 18 Este 0 -- -- 94
2019-11-20 23:00:00 5.7 12 Este 19 Este 0.4 -- -- 92
2019-11-20 22:00:00 6 9 Este 18 Este 0.2 -- -- 90
2019-11-20 21:00:00 6.2 9 Este 19 Este 0.2 -- -- 87
2019-11-20 20:00:00 6.8 10 Este 17 Este 0 -- -- 82
2019-11-20 19:00:00 7.1 9 Este 18 Este 0 -- -- 78
2019-11-20 18:00:00 7.4 11 Este 19 Este 0 -- -- 78
2019-11-20 17:00:00 8 13 Sudeste 22 Este 0 -- -- 76
2019-11-20 16:00:00 8.1 13 Este 24 Sudeste 0 -- -- 76
2019-11-20 15:00:00 8.4 12 Sudeste 23 Este 0 -- -- 75
2019-11-20 14:00:00 7.1 5 Sudeste 20 Este 0 -- -- 80
2019-11-20 13:00:00 6.4 12 Este 22 Este 0 -- -- 79
2019-11-20 12:00:00 5.1 10 Este 20 Este 0 -- -- 82
2019-11-20 11:00:00 4.2 13 Este 20 Este 0 -- -- 84
2019-11-20 10:00:00 3.8 12 Este 19 Este 0 -- -- 86
2019-11-20 09:00:00 2.5 7 Nordeste 12 Nordeste 0 -- -- 91
2019-11-20 08:00:00 2 8 Nordeste 14 Este 0 -- -- 91
2019-11-20 07:00:00 1.7 8 Nordeste 16 Este 0 -- -- 92
2019-11-20 06:00:00 2.1 9 Este 17 Este 0 -- -- 92
2019-11-20 05:00:00 1.7 7 Este 13 Este 0 -- -- 95
2019-11-20 04:00:00 1.5 5 Norte 9 Este 0 -- -- 94
2019-11-20 03:00:00 2.2 8 Este 11 Este 0 -- -- 94
2019-11-20 02:00:00 2 2 Norte 6 Norte 0 -- -- 92
2019-11-20 01:00:00 2.4 2 Norte 8 Este 0 -- -- 91
2019-11-20 00:00:00 2.8 3 Norte 9 Noroeste 0 -- -- 89
2019-11-19 23:00:00 3.6 0 Calma 4 Norte 0 -- -- 87
2019-11-19 22:00:00 4.3 0 Calma 4 Oeste 0 -- -- 84
2019-11-19 21:00:00 4.9 0 Calma 5 Norte 0 -- -- 80
2019-11-19 20:00:00 4.7 4 Noroeste 11 Noroeste 0 -- -- 81
2019-11-19 19:00:00 5.6 9 Noroeste 13 Noroeste 0 -- -- 78
2019-11-19 18:00:00 7.1 6 Noroeste 8 Noroeste 0 -- -- 73
2019-11-19 17:00:00 10.5 6 Noroeste 18 Oeste 0 -- -- 63
2019-11-19 16:00:00 12.4 8 Oeste 18 Oeste 0 -- -- 56
2019-11-19 15:00:00 12.3 10 Oeste 19 Oeste 0 -- -- 57
2019-11-19 14:00:00 11.7 12 Oeste 27 Oeste 0 -- -- 56
2019-11-19 13:00:00 11 12 Oeste 22 Oeste 0 -- -- 62
2019-11-19 12:00:00 10.6 10 Oeste 20 Oeste 0 -- -- 60
2019-11-19 11:00:00 9.1 4 Sudoeste 10 Sur 0 -- -- 71
2019-11-19 10:00:00 6.5 0 Calma 15 Noroeste 0 -- -- 80
2019-11-19 09:00:00 3.9 6 Oeste 13 Norte 0 -- -- 93
2019-11-19 08:00:00 1.7 5 Este 13 Noroeste 0 -- -- 94
2019-11-19 07:00:00 2 9 Noroeste 14 Oeste 0 -- -- 93
2019-11-19 06:00:00 3.1 9 Oeste 18 Oeste 0 -- -- 94
2019-11-19 05:00:00 2.9 10 Noroeste 17 Noroeste 0 -- -- 91
2019-11-19 04:00:00 4 10 Noroeste 20 Noroeste 0 -- -- 90
2019-11-19 03:00:00 5 10 Noroeste 19 Noroeste 0 -- -- 88
2019-11-19 02:00:00 4.5 8 Oeste 16 Oeste 0 -- -- 90
2019-11-19 01:00:00 3.4 11 Noroeste 18 Noroeste 0 -- -- 91
2019-11-19 00:00:00 3.4 11 Noroeste 15 Noroeste 0 -- -- 89
2019-11-18 23:00:00 4.4 8 Noroeste 11 Noroeste 0 -- -- 85
2019-11-18 22:00:00 5.4 7 Noroeste 12 Noroeste 0 -- -- 81
2019-11-18 21:00:00 5.8 4 Noroeste 11 Oeste 0 -- -- 79
2019-11-18 20:00:00 5.7 5 Oeste 17 Noroeste 0 -- -- 76
2019-11-18 19:00:00 4.4 7 Noroeste 23 Noroeste 0 -- -- 78
2019-11-18 18:00:00 5.8 9 Noroeste 21 Noroeste 0 -- -- 71
2019-11-18 17:00:00 7.8 10 Noroeste 24 Noroeste 0 -- -- 67
2019-11-18 16:00:00 8 12 Norte 25 Noroeste 0 -- -- 65
2019-11-18 15:00:00 8.2 8 Noroeste 28 Norte 0 -- -- 66
2019-11-18 14:00:00 8.5 9 Norte 24 Oeste 0 -- -- 68
2019-11-18 13:00:00 9.3 13 Noroeste 26 Noroeste 0 -- -- 65
2019-11-18 12:00:00 7.6 7 Norte 23 Noroeste 0 -- -- 73
2019-11-18 11:00:00 7.6 13 Noroeste 30 Noroeste 0 -- -- 72
2019-11-18 10:00:00 7.2 13 Noroeste 27 Oeste 0 -- -- 72
2019-11-18 09:00:00 6.4 8 Noroeste 16 Oeste 0 -- -- 80
2019-11-18 08:00:00 4.9 7 Noroeste 20 Noroeste 0.2 -- -- 88
2019-11-18 07:00:00 5.5 8 Noroeste 20 Oeste 0 -- -- 79
2019-11-18 06:00:00 4.8 9 Noroeste 21 Noroeste 0 -- -- 84
2019-11-18 05:00:00 5.9 10 Noroeste 18 Noroeste 0 -- -- 81
2019-11-18 04:00:00 5.8 14 Noroeste 32 Norte 0 -- -- 79
2019-11-18 03:00:00 5.4 12 Oeste 29 Norte 0 -- -- 88
2019-11-18 02:00:00 5.6 8 Sudoeste 19 Oeste 0 -- -- 85
2019-11-18 01:00:00 5.8 5 Oeste 19 Oeste 0 -- -- 87
2019-11-18 00:00:00 6.1 6 Oeste 25 Noroeste 0 -- -- 87
2019-11-17 23:00:00 5.8 6 Noroeste 14 Oeste 0 -- -- 95
2019-11-17 22:00:00 5.5 6 Noroeste 15 Noroeste 0.2 -- -- 96
2019-11-17 21:00:00 5.1 6 Norte 9 Norte 0 -- -- 94
2019-11-17 20:00:00 6.3 3 Oeste 6 Oeste 0 -- -- 93
2019-11-17 19:00:00 7 4 Oeste 12 Sudoeste 0 -- -- 90
2019-11-17 18:00:00 8.5 5 Oeste 20 Noroeste 0 -- -- 78
2019-11-17 17:00:00 9 8 Oeste 19 Oeste 0 -- -- 79
2019-11-17 16:00:00 9 11 Oeste 21 Oeste 0 -- -- 82
2019-11-17 15:00:00 9.2 13 Noroeste 33 Noroeste 0 -- -- 76
2019-11-17 14:00:00 9.2 10 Oeste 22 Noroeste 0 -- -- 78
2019-11-17 13:00:00 9 9 Noroeste 26 Oeste 0 -- -- 81
2019-11-17 12:00:00 8.4 8 Oeste 23 Noroeste 0.2 -- -- 85
2019-11-17 11:00:00 7 12 Noroeste 29 Oeste 0.2 -- -- 85
2019-11-17 10:00:00 8.5 16 Noroeste 27 Noroeste 0 -- -- 74
2019-11-17 09:00:00 5.9 12 Noroeste 17 Noroeste 0 -- -- 81
2019-11-17 08:00:00 5.5 8 Oeste 20 Noroeste 0 -- -- 80
2019-11-17 07:00:00 5.3 5 Noroeste 25 Oeste 0 -- -- 80
2019-11-17 06:00:00 5.5 11 Noroeste 22 Noroeste 0 -- -- 77
2019-11-17 05:00:00 4.9 7 Noroeste 13 Noroeste 0 -- -- 79
2019-11-17 04:00:00 4.3 3 Oeste 10 Sudoeste 0 -- -- 78
2019-11-17 03:00:00 3.8 0 Calma 8 Noroeste 0 -- -- 80
2019-11-17 02:00:00 3.7 0 Calma 6 Sudeste 0 -- -- 82
2019-11-17 01:00:00 4.4 2 Sudeste 18 Oeste 0 -- -- 78
2019-11-17 00:00:00 5.1 11 Noroeste 19 Noroeste 0 -- -- 75
2019-11-16 23:00:00 4.1 4 Noroeste 21 Noroeste 0 -- -- 80
2019-11-16 22:00:00 5.1 14 Noroeste 30 Noroeste 0 -- -- 76
2019-11-16 21:00:00 6.2 17 Noroeste 29 Noroeste 0 -- -- 71
2019-11-16 20:00:00 6.6 15 Oeste 28 Oeste 0 -- -- 71
2019-11-16 19:00:00 7 13 Oeste 33 Oeste 0 -- -- 71
2019-11-16 18:00:00 7.1 11 Oeste 25 Oeste 0 -- -- 71
2019-11-16 17:00:00 7.8 12 Noroeste 23 Noroeste 0 -- -- 66
2019-11-16 16:00:00 8.3 12 Oeste 27 Sudoeste 0 -- -- 65
2019-11-16 15:00:00 7.6 8 Oeste 28 Oeste 0 -- -- 73
2019-11-16 14:00:00 7.5 13 Oeste 27 Oeste 0 -- -- 69
2019-11-16 13:00:00 6.7 14 Oeste 34 Oeste 0 -- -- 73
2019-11-16 12:00:00 6.6 13 Oeste 27 Oeste 0 -- -- 73
2019-11-16 11:00:00 5 0 Calma 10 Oeste 0 -- -- 84
2019-11-16 10:00:00 3.6 4 Oeste 10 Oeste 0 -- -- 89
2019-11-16 09:00:00 2.5 8 Noroeste 16 Noroeste 0 -- -- 92
2019-11-16 08:00:00 1.8 6 Noroeste 16 Noroeste 0 -- -- 92
2019-11-16 07:00:00 1 10 Norte 24 Noroeste 0 -- -- 93
2019-11-16 06:00:00 1.1 12 Noroeste 27 Oeste 0 -- -- 94
2019-11-16 05:00:00 1.2 3 Oeste 20 Noroeste 0 -- -- 92
2019-11-16 04:00:00 1.3 9 Noroeste 16 Oeste 0 -- -- 93
2019-11-16 03:00:00 1.3 5 Oeste 11 Oeste 0 -- -- 93
2019-11-16 02:00:00 2.1 7 Oeste 25 Oeste 0 -- -- 91
2019-11-16 01:00:00 2.4 12 Noroeste 20 Noroeste 0 -- -- 95
2019-11-16 00:00:00 2 7 Oeste 14 Oeste 0 -- -- 94
2019-11-15 23:00:00 2.6 5 Oeste 12 Noroeste 0 -- -- 92
2019-11-15 22:00:00 3.6 6 Oeste 11 Oeste 0.2 -- -- 93
2019-11-15 21:00:00 3.8 3 Noroeste 13 Oeste 0 -- -- 91
2019-11-15 20:00:00 3.6 4 Oeste 19 Noroeste 0 -- -- 90
2019-11-15 19:00:00 3.2 8 Noroeste 27 Noroeste 0 -- -- 91
2019-11-15 18:00:00 3.4 9 Noroeste 27 Oeste 0 -- -- 92
2019-11-15 17:00:00 3.9 8 Oeste 24 Oeste 1.2 -- -- 91
2019-11-15 16:00:00 4.6 19 Noroeste 34 Oeste 0.4 -- -- 86
2019-11-15 15:00:00 6.3 16 Oeste 31 Oeste 0 -- -- 78
2019-11-15 14:00:00 6.4 19 Oeste 36 Oeste 0 -- -- 80
2019-11-15 13:00:00 5.6 21 Oeste 39 Sudoeste 0 -- -- 84
2019-11-15 12:00:00 4.7 16 Oeste 35 Oeste 0 -- -- 87
2019-11-15 11:00:00 4.4 22 Oeste 43 Oeste 0 -- -- 85
2019-11-15 10:00:00 4.6 23 Oeste 44 Oeste 0.2 -- -- 86
2019-11-15 09:00:00 4.1 18 Oeste 38 Oeste 0.4 -- -- 87
2019-11-15 08:00:00 3.8 14 Oeste 42 Oeste 0.4 -- -- 90
2019-11-15 07:00:00 3.4 18 Oeste 38 Oeste 0.2 -- -- 89
2019-11-15 06:00:00 3.5 19 Oeste 41 Sudoeste 0.2 -- -- 88
2019-11-15 05:00:00 4 15 Oeste 30 Oeste 0 -- -- 82
2019-11-15 04:00:00 2 5 Noroeste 15 Noroeste 0 -- -- 92
2019-11-15 03:00:00 2 5 Noroeste 14 Noroeste 0 -- -- 90
2019-11-15 02:00:00 2.6 11 Noroeste 17 Noroeste 0 -- -- 89
2019-11-15 01:00:00 3.6 4 Noroeste 16 Oeste 0 -- -- 88
2019-11-15 00:00:00 3.8 11 Oeste 23 Oeste 0 -- -- 86
2019-11-14 23:00:00 4.3 11 Oeste 21 Noroeste 0 -- -- 86
2019-11-14 22:00:00 3.8 5 Oeste 10 Oeste 0 -- -- 91
2019-11-14 21:00:00 3.5 6 Noroeste 13 Oeste 0 -- -- 89
2019-11-14 20:00:00 4.4 7 Oeste 15 Oeste 0 -- -- 90
2019-11-14 19:00:00 5.1 3 Noroeste 24 Oeste 0 -- -- 84
2019-11-14 18:00:00 6.3 13 Oeste 32 Oeste 0 -- -- 75
2019-11-14 17:00:00 7.8 7 Noroeste 28 Noroeste 0 -- -- 62
2019-11-14 16:00:00 9 13 Oeste 31 Oeste 0 -- -- 55
2019-11-14 15:00:00 10.1 18 Oeste 39 Oeste 0 -- -- 54
2019-11-14 14:00:00 9.8 22 Oeste 36 Oeste 0 -- -- 53
2019-11-14 13:00:00 9.3 8 Sudoeste 18 Sudoeste 0 -- -- 64
2019-11-14 12:00:00 9.4 5 Sur 15 Oeste 0 -- -- 67
2019-11-14 11:00:00 7.7 6 Sudoeste 18 Oeste 0 -- -- 75
2019-11-14 10:00:00 6.1 9 Noroeste 18 Noroeste 0 -- -- 86
2019-11-14 09:00:00 2.6 8 Noroeste 19 Oeste 0 -- -- 94
2019-11-14 08:00:00 2.8 9 Oeste 22 Oeste 0 -- -- 93
2019-11-14 07:00:00 3.8 7 Oeste 30 Noroeste 1 -- -- 90
2019-11-14 06:00:00 4.3 15 Noroeste 26 Noroeste 0.4 -- -- 89
2019-11-14 05:00:00 4.6 14 Noroeste 37 Noroeste 2.8 -- -- 89
2019-11-14 04:00:00 6.1 13 Noroeste 29 Noroeste 1.6 -- -- 88
2019-11-14 03:00:00 6.4 7 Este 12 Este 0 -- -- 89
2019-11-14 02:00:00 6.6 2 Nordeste 15 Nordeste 0 -- -- 87
2019-11-14 01:00:00 7 3 Sudeste 10 Sudoeste 0 -- -- 86
2019-11-14 00:00:00 7.3 7 Norte 16 Noroeste 0 -- -- 82
2019-11-13 23:00:00 7.1 9 Noroeste 13 Este 0 -- -- 83
2019-11-13 22:00:00 7.2 6 Nordeste 10 Nordeste 0 -- -- 82
2019-11-13 21:00:00 7.2 5 Nordeste 13 Este 0 -- -- 84
2019-11-13 20:00:00 7.2 7 Nordeste 10 Este 0 -- -- 86
2019-11-13 19:00:00 7.8 4 Este 8 Nordeste 0 -- -- 83
2019-11-13 18:00:00 9.9 4 Norte 10 Norte 0 -- -- 75
2019-11-13 17:00:00 11.9 4 Noroeste 17 Noroeste 0 -- -- 66
2019-11-13 16:00:00 12 6 Noroeste 25 Noroeste 0 -- -- 65
2019-11-13 15:00:00 13.3 14 Noroeste 30 Oeste 0 -- -- 61
2019-11-13 14:00:00 12.8 12 Oeste 41 Noroeste 0 -- -- 61
2019-11-13 13:00:00 12.7 22 Noroeste 41 Noroeste 0 -- -- 64
2019-11-13 12:00:00 13.6 21 Noroeste 35 Noroeste 0 -- -- 61
2019-11-13 11:00:00 12.5 13 Oeste 24 Oeste 0 -- -- 77
2019-11-13 10:00:00 9.9 6 Oeste 17 Noroeste 0 -- -- 87
2019-11-13 09:00:00 8.1 9 Noroeste 19 Oeste 0.2 -- -- 96
2019-11-13 08:00:00 7 0 Calma 12 Oeste 0.6 -- -- 97
2019-11-13 07:00:00 7 5 Oeste 11 Oeste 0.4 -- -- 98
2019-11-13 06:00:00 7 5 Oeste 9 Oeste 1.4 -- -- 97
2019-11-13 05:00:00 6.9 3 Norte 9 Este 2.6 -- -- 97
2019-11-13 04:00:00 7 5 Este 9 Este 1 -- -- 97
2019-11-13 03:00:00 6.9 6 Nordeste 9 Nordeste 0.2 -- -- 96
2019-11-13 02:00:00 6.9 4 Sudeste 7 Este 0.6 -- -- 96
2019-11-13 01:00:00 6.9 0 Calma 5 Este 0 -- -- 95
2019-11-13 00:00:00 6.7 0 Calma 6 Oeste 0 -- -- 94
2019-11-12 23:00:00 7.1 0 Calma 4 Noroeste 0.2 -- -- 93
2019-11-12 22:00:00 7.3 3 Norte 11 Noroeste 0.4 -- -- 92
2019-11-12 21:00:00 8.1 7 Noroeste 23 Noroeste 0.4 -- -- 88
2019-11-12 20:00:00 9.2 12 Noroeste 31 Oeste 0 -- -- 77
2019-11-12 19:00:00 10.4 13 Oeste 24 Oeste 0 -- -- 70
2019-11-12 18:00:00 10.2 5 Norte 15 Noroeste 0 -- -- 69
2019-11-12 17:00:00 11.3 7 Oeste 18 Oeste 0 -- -- 64
2019-11-12 16:00:00 11.6 10 Oeste 23 Oeste 0 -- -- 66
2019-11-12 15:00:00 12 12 Oeste 27 Sudoeste 0 -- -- 65
2019-11-12 14:00:00 11 7 Oeste 18 Noroeste 0 -- -- 67
2019-11-12 13:00:00 10.2 8 Oeste 21 Oeste 0 -- -- 71
2019-11-12 12:00:00 9.3 10 Sudoeste 24 Oeste 0 -- -- 76
2019-11-12 11:00:00 8.3 9 Oeste 17 Oeste 0 -- -- 77
2019-11-12 10:00:00 7.4 5 Oeste 17 Sudoeste 0 -- -- 80
2019-11-12 09:00:00 7 5 Oeste 20 Noroeste 0 -- -- 82
2019-11-12 08:00:00 7 7 Oeste 22 Oeste 0 -- -- 80
2019-11-12 07:00:00 6.7 8 Oeste 29 Noroeste 0 -- -- 80
2019-11-12 06:00:00 6.9 8 Oeste 19 Oeste 0 -- -- 82
2019-11-12 05:00:00 6.8 9 Oeste 20 Oeste 0 -- -- 83
2019-11-12 04:00:00 6.9 5 Oeste 21 Oeste 0 -- -- 82
2019-11-12 03:00:00 6.9 12 Oeste 24 Noroeste 0 -- -- 82
2019-11-12 02:00:00 6.6 9 Oeste 23 Oeste 0 -- -- 84
2019-11-12 01:00:00 6.1 8 Oeste 22 Oeste 0 -- -- 85
2019-11-12 00:00:00 5.2 10 Noroeste 19 Noroeste 0 -- -- 86
2019-11-11 23:00:00 6.2 10 Noroeste 24 Noroeste 0 -- -- 80
2019-11-11 22:00:00 7.1 14 Noroeste 24 Oeste 0.2 -- -- 80
2019-11-11 21:00:00 6.8 11 Oeste 26 Noroeste 0 -- -- 81
2019-11-11 20:00:00 7.4 11 Oeste 28 Oeste 0 -- -- 81
2019-11-11 19:00:00 7 13 Noroeste 23 Noroeste 0.2 -- -- 81
2019-11-11 18:00:00 7.9 11 Noroeste 32 Noroeste 0.2 -- -- 84
2019-11-11 17:00:00 9 15 Noroeste 39 Noroeste 0 -- -- 71
2019-11-11 16:00:00 8.7 13 Noroeste 38 Norte 0 -- -- 84
2019-11-11 15:00:00 9.1 22 Noroeste 39 Noroeste 0.2 -- -- 83
2019-11-11 14:00:00 8.5 13 Oeste 25 Oeste 0 -- -- 92
2019-11-11 13:00:00 8.3 8 Noroeste 17 Oeste 0.2 -- -- 93
2019-11-11 12:00:00 7.3 9 Noroeste 14 Noroeste 0.8 -- -- 94
2019-11-11 11:00:00 7.3 6 Noroeste 17 Oeste 0.2 -- -- 92
2019-11-11 10:00:00 6.9 8 Noroeste 18 Noroeste 0 -- -- 89
2019-11-11 09:00:00 6.5 6 Noroeste 15 Noroeste 0 -- -- 86
2019-11-11 08:00:00 6.2 8 Noroeste 14 Noroeste 0 -- -- 85
2019-11-11 07:00:00 6 7 Oeste 25 Noroeste 0 -- -- 85
2019-11-11 06:00:00 5.9 8 Noroeste 24 Noroeste 0 -- -- 87
2019-11-11 05:00:00 5.2 4 Oeste 12 Noroeste 0 -- -- 91
2019-11-11 04:00:00 4.3 7 Noroeste 18 Noroeste 0 -- -- 91
2019-11-11 03:00:00 4 2 Noroeste 17 Oeste 0 -- -- 91
2019-11-11 02:00:00 3.7 3 Oeste 12 Oeste 0 -- -- 93
2019-11-11 01:00:00 3.8 6 Oeste 15 Oeste 0 -- -- 94
2019-11-11 00:00:00 3.5 0 Calma 8 Este 0 -- -- 93
2019-11-10 23:00:00 3.2 4 Sudoeste 25 Noroeste 0 -- -- 91
2019-11-10 22:00:00 3.2 4 Norte 22 Noroeste 0 -- -- 91
2019-11-10 21:00:00 3.4 13 Noroeste 22 Noroeste 0.2 -- -- 91
2019-11-10 20:00:00 3.9 12 Oeste 21 Oeste 0 -- -- 90
2019-11-10 19:00:00 3.7 8 Oeste 18 Oeste 0 -- -- 92
2019-11-10 18:00:00 3.3 8 Noroeste 20 Oeste 0 -- -- 90
2019-11-10 17:00:00 3.9 12 Sudoeste 24 Sudoeste 0 -- -- 90
2019-11-10 16:00:00 3.3 12 Oeste 24 Oeste 2.8 -- -- 94
2019-11-10 15:00:00 4.2 10 Oeste 31 Oeste 0.6 -- -- 89
2019-11-10 14:00:00 4.8 13 Oeste 28 Sudoeste 0.8 -- -- 90
2019-11-10 13:00:00 5.5 15 Oeste 39 Oeste 0.2 -- -- 89
2019-11-10 12:00:00 4.1 11 Oeste 26 Oeste 0.4 -- -- 91
2019-11-10 11:00:00 4.2 14 Oeste 28 Oeste 0.6 -- -- 93
2019-11-10 10:00:00 3.6 16 Oeste 36 Oeste 0.6 -- -- 92
2019-11-10 09:00:00 4.2 9 Noroeste 19 Noroeste 0.6 -- -- 95
2019-11-10 08:00:00 3.8 8 Oeste 15 Noroeste 1.6 -- -- 96
2019-11-10 07:00:00 3.5 5 Oeste 13 Oeste 2 -- -- 95
2019-11-10 06:00:00 3.4 12 Noroeste 30 Noroeste 2.2 -- -- 93
2019-11-10 05:00:00 4.1 16 Oeste 33 Noroeste 0.6 -- -- 89
2019-11-10 04:00:00 4.4 14 Oeste 25 Oeste 0.2 -- -- 89
2019-11-10 03:00:00 4.5 12 Oeste 34 Noroeste 1.4 -- -- 90
2019-11-10 02:00:00 5.4 12 Noroeste 28 Noroeste 0.8 -- -- 88
2019-11-10 01:00:00 5.9 9 Oeste 31 Noroeste 0.2 -- -- 84
2019-11-10 00:00:00 6 11 Oeste 29 Oeste 0 -- -- 86
2019-11-09 23:00:00 5.9 8 Oeste 45 Noroeste 0.2 -- -- 85
2019-11-09 22:00:00 6.4 22 Noroeste 49 Noroeste 1 -- -- 84
2019-11-09 21:00:00 8 19 Noroeste 42 Noroeste 1.2 -- -- 85
2019-11-09 20:00:00 9.3 7 Noroeste 25 Noroeste 0 -- -- 81
2019-11-09 19:00:00 9.8 14 Noroeste 27 Oeste 0 -- -- 79
2019-11-09 18:00:00 10.1 17 Oeste 39 Oeste 0 -- -- 76
2019-11-09 17:00:00 10.6 18 Oeste 38 Oeste 0 -- -- 73
2019-11-09 16:00:00 11 9 Noroeste 28 Oeste 0 -- -- 73
2019-11-09 15:00:00 9.9 14 Noroeste 49 Oeste 0.2 -- -- 80
2019-11-09 14:00:00 11 27 Oeste 53 Noroeste 0 -- -- 68
2019-11-09 13:00:00 8.2 12 Noroeste 42 Noroeste 0.6 -- -- 87
2019-11-09 12:00:00 10.5 14 Noroeste 30 Oeste 0 -- -- 68
2019-11-09 11:00:00 10.4 10 Oeste 25 Oeste 0 -- -- 70
2019-11-09 10:00:00 9.2 8 Sudoeste 27 Oeste 0 -- -- 75
2019-11-09 09:00:00 7.4 17 Noroeste 36 Noroeste 0 -- -- 81
2019-11-09 08:00:00 6.8 19 Noroeste 37 Noroeste 0 -- -- 83
2019-11-09 07:00:00 6.1 15 Noroeste 26 Noroeste 0 -- -- 89
2019-11-09 06:00:00 6 13 Noroeste 26 Oeste 0 -- -- 89
2019-11-09 05:00:00 6 8 Oeste 24 Noroeste 0 -- -- 91
2019-11-09 04:00:00 6 13 Oeste 26 Oeste 0 -- -- 89
2019-11-09 03:00:00 6 12 Oeste 26 Sudoeste 0 -- -- 89
2019-11-09 02:00:00 6.1 8 Oeste 27 Oeste 0 -- -- 89
2019-11-09 01:00:00 6.4 11 Oeste 22 Oeste 0.2 -- -- 85
2019-11-09 00:00:00 6.1 10 Oeste 28 Noroeste 0.2 -- -- 89
2019-11-08 23:00:00 6.1 14 Oeste 32 Oeste 0.8 -- -- 91
2019-11-08 22:00:00 6.2 10 Oeste 36 Oeste 0 -- -- 88
2019-11-08 21:00:00 6.3 13 Oeste 42 Noroeste 0.2 -- -- 88
2019-11-08 20:00:00 6 9 Oeste 50 Noroeste 1.8 -- -- 90
2019-11-08 19:00:00 5.9 15 Oeste 31 Noroeste 0.8 -- -- 91
2019-11-08 18:00:00 5.4 14 Oeste 43 Noroeste 3.4 -- -- 92
2019-11-08 17:00:00 5 18 Oeste 47 Oeste 2.8 -- -- 93
2019-11-08 16:00:00 5.2 20 Oeste 48 Oeste 0.8 -- -- 90
2019-11-08 15:00:00 5.1 12 Oeste 34 Oeste 3.4 -- -- 93
2019-11-08 14:00:00 5.4 11 Oeste 45 Oeste 2.4 -- -- 90
2019-11-08 13:00:00 6.3 21 Oeste 40 Oeste 0.4 -- -- 84
2019-11-08 12:00:00 7.7 21 Oeste 48 Oeste 0.2 -- -- 75
2019-11-08 11:00:00 6.6 18 Oeste 44 Oeste 0.6 -- -- 82
2019-11-08 10:00:00 6.7 21 Oeste 45 Oeste 0 -- -- 72
2019-11-08 09:00:00 6.3 21 Oeste 37 Oeste 0 -- -- 71
2019-11-08 08:00:00 5.2 15 Oeste 36 Oeste 0 -- -- 75
2019-11-08 07:00:00 5.2 18 Oeste 34 Oeste 0 -- -- 76
2019-11-08 06:00:00 4.9 18 Oeste 44 Oeste 0.2 -- -- 78
2019-11-08 05:00:00 5.4 21 Oeste 46 Oeste 0 -- -- 72
2019-11-08 04:00:00 5.5 20 Oeste 41 Oeste 0 -- -- 71
2019-11-08 03:00:00 5.9 21 Oeste 44 Oeste 0 -- -- 67
2019-11-08 02:00:00 5.7 23 Oeste 48 Oeste 0 -- -- 67
2019-11-08 01:00:00 5.7 19 Oeste 39 Oeste 0 -- -- 69
2019-11-08 00:00:00 5.6 15 Oeste 36 Oeste 0 -- -- 71